Time;durP1;ratioP1;P1;durP2;ratioP2;P2;SDS_P1;SDS_P2;PMS_P1;PMS_P2;Temp;Humidity;BMP_temperature;BMP_pressure;BME280_temperature;BME280_humidity;BME280_pressure;Samples;Min_cycle;Max_cycle;Signal;HPM_P1;HPM_P2
2022/04/29 00:00:38;;;;;;;10.18;4.68;;;11.20;85.70;;;;;;5037340;28;20370;-84
2022/04/29 00:03:08;;;;;;;8.38;4.88;;;11.10;85.80;;;;;;5046772;28;20411;-86
2022/04/29 00:05:35;;;;;;;9.63;4.45;;;11.10;86.40;;;;;;5045936;28;20029;-86
2022/04/29 00:08:05;;;;;;;8.45;4.20;;;11.00;87.00;;;;;;5064528;28;20076;-85
2022/04/29 00:10:32;;;;;;;9.98;4.35;;;11.00;88.10;;;;;;5047664;28;20025;-83
2022/04/29 00:13:01;;;;;;;8.18;3.78;;;10.90;89.40;;;;;;5065027;28;20039;-85
2022/04/29 00:15:28;;;;;;;7.82;3.97;;;10.90;90.50;;;;;;5072691;28;20033;-84
2022/04/29 00:17:54;;;;;;;10.73;4.32;;;10.80;90.90;;;;;;5054721;28;20021;-85
2022/04/29 00:20:20;;;;;;;7.35;3.95;;;10.70;91.40;;;;;;5044194;28;20025;-84
2022/04/29 00:22:46;;;;;;;7.60;4.30;;;10.70;92.30;;;;;;5064548;28;20492;-85
2022/04/29 00:25:12;;;;;;;8.32;4.18;;;10.60;92.90;;;;;;5062356;28;20029;-85
2022/04/29 00:27:40;;;;;;;6.57;3.58;;;10.50;93.80;;;;;;5065130;28;20020;-85
2022/04/29 00:30:10;;;;;;;9.57;4.00;;;10.50;94.60;;;;;;5053250;28;20124;-84
2022/04/29 00:32:38;;;;;;;7.78;3.50;;;10.50;95.10;;;;;;5045461;28;20039;-84
2022/04/29 00:35:05;;;;;;;8.10;3.97;;;10.40;96.00;;;;;;5066457;28;20021;-83
2022/04/29 00:37:32;;;;;;;6.60;3.63;;;10.40;97.00;;;;;;5077945;28;20039;-82
2022/04/29 00:39:58;;;;;;;9.25;3.72;;;10.30;98.00;;;;;;5056391;28;20036;-82
2022/04/29 00:42:24;;;;;;;9.75;3.80;;;10.20;98.90;;;;;;5057500;28;20021;-84
2022/04/29 00:44:51;;;;;;;6.22;3.90;;;10.20;99.90;;;;;;5056924;28;20032;-83
2022/04/29 00:47:21;;;;;;;7.35;4.10;;;10.10;99.90;;;;;;5052654;28;20034;-83
2022/04/29 00:49:48;;;;;;;6.53;4.20;;;10.10;99.90;;;;;;5072459;28;20028;-82
2022/04/29 00:52:18;;;;;;;11.05;4.10;;;10.10;99.90;;;;;;5056176;28;20055;-83
2022/04/29 00:54:57;;;;;;;8.40;4.10;;;10.00;99.90;;;;;;5072367;28;20056;-85
2022/04/29 00:57:32;;;;;;;8.02;4.45;;;10.00;99.90;;;;;;5029379;28;20038;-84
2022/04/29 01:00:04;;;;;;;10.13;4.35;;;10.00;99.90;;;;;;5053746;28;20034;-84
2022/04/29 01:02:31;;;;;;;7.95;4.55;;;9.90;99.90;;;;;;5071137;28;20055;-84
2022/04/29 01:05:02;;;;;;;8.60;4.30;;;9.90;99.90;;;;;;5054395;28;20020;-83
2022/04/29 01:07:29;;;;;;;6.93;4.28;;;9.90;99.90;;;;;;5058991;28;20092;-84
2022/04/29 01:09:55;;;;;;;9.60;3.97;;;9.80;99.90;;;;;;5029569;28;20025;-84
2022/04/29 01:12:24;;;;;;;7.70;4.00;;;9.80;99.90;;;;;;5054066;28;20611;-84
2022/04/29 01:14:52;;;;;;;9.48;4.05;;;9.80;99.90;;;;;;5098810;22;20060;-86
2022/04/29 01:17:18;;;;;;;7.65;3.97;;;9.80;99.90;;;;;;5077976;28;20040;-84
2022/04/29 01:19:43;;;;;;;9.52;4.13;;;9.70;99.90;;;;;;5059337;28;20023;-85
2022/04/29 01:22:11;;;;;;;7.07;4.10;;;9.70;99.90;;;;;;5082440;28;20027;-87
2022/04/29 01:24:37;;;;;;;9.45;4.18;;;9.70;99.90;;;;;;5056756;28;20021;-84
2022/04/29 01:27:11;;;;;;;7.22;4.30;;;9.70;99.90;;;;;;5065107;28;20308;-85
2022/04/29 01:29:40;;;;;;;6.90;3.85;;;9.60;99.90;;;;;;5063175;28;20036;-85
2022/04/29 01:32:11;;;;;;;9.23;4.22;;;9.60;99.90;;;;;;5065778;28;20036;-84
2022/04/29 01:34:39;;;;;;;6.13;3.75;;;9.50;99.90;;;;;;5071243;28;20029;-84
2022/04/29 01:37:07;;;;;;;11.18;5.28;;;9.50;99.90;;;;;;5064689;28;20273;-85
2022/04/29 01:39:33;;;;;;;7.35;3.92;;;9.50;99.90;;;;;;5063404;28;20086;-84
2022/04/29 01:41:59;;;;;;;5.85;3.92;;;9.50;99.90;;;;;;5075666;28;20025;-85
2022/04/29 01:44:25;;;;;;;7.72;4.05;;;9.50;99.90;;;;;;5074984;28;20040;-83
2022/04/29 01:46:51;;;;;;;16.42;4.32;;;9.40;99.90;;;;;;5073138;28;20080;-83
2022/04/29 01:49:35;;;;;;;8.85;4.45;;;9.40;99.90;;;;;;5078683;28;20057;-83
2022/04/29 01:52:04;;;;;;;10.98;3.92;;;9.40;99.90;;;;;;5071054;28;20039;-84
2022/04/29 01:54:30;;;;;;;7.70;3.97;;;9.30;99.90;;;;;;5045757;28;20021;-82
2022/04/29 01:56:56;;;;;;;7.45;4.05;;;9.30;99.90;;;;;;5062373;28;20039;-84
2022/04/29 01:59:22;;;;;;;5.50;4.00;;;9.20;99.90;;;;;;5061604;28;20032;-85
2022/04/29 02:02:16;;;;;;;6.47;4.00;;;9.20;99.90;;;;;;5080779;28;20520;-83
2022/04/29 02:04:42;;;;;;;5.30;4.05;;;9.10;99.90;;;;;;5062747;28;20500;-84
2022/04/29 02:07:08;;;;;;;11.77;4.25;;;9.10;99.90;;;;;;5067313;28;20090;-84
2022/04/29 02:09:39;;;;;;;14.27;4.65;;;9.10;99.90;;;;;;5070064;28;20039;-85
2022/04/29 02:12:06;;;;;;;8.07;5.00;;;9.10;99.90;;;;;;5064317;28;20017;-84
2022/04/29 02:14:52;;;;;;;6.75;4.22;;;9.00;99.90;;;;;;5076218;28;20017;-84
2022/04/29 02:17:21;;;;;;;9.48;4.63;;;9.00;99.90;;;;;;5075777;28;20101;-83
2022/04/29 02:19:47;;;;;;;8.55;4.60;;;9.00;99.90;;;;;;5076623;28;20029;-83
2022/04/29 02:22:13;;;;;;;8.43;3.85;;;8.90;99.90;;;;;;5075676;28;20025;-84
2022/04/29 02:24:39;;;;;;;18.70;5.13;;;8.90;99.90;;;;;;5074746;28;20040;-83
2022/04/29 02:27:07;;;;;;;7.22;4.75;;;8.90;99.90;;;;;;5075082;28;20024;-85
2022/04/29 02:29:35;;;;;;;10.82;4.60;;;8.80;99.90;;;;;;5072904;28;20078;-84
2022/04/29 02:32:09;;;;;;;;;;;8.80;99.90;;;;;;5063843;28;20028;-84
2022/04/29 02:34:36;;;;;;;8.73;4.65;;;8.80;99.90;;;;;;5046029;28;19954;-85
2022/04/29 02:37:03;;;;;;;8.85;5.10;;;8.70;99.90;;;;;;5063555;28;20029;-85
2022/04/29 02:39:29;;;;;;;8.95;4.40;;;8.70;99.90;;;;;;5062490;28;20111;-84
2022/04/29 02:41:55;;;;;;;7.05;4.43;;;8.70;99.90;;;;;;5065029;28;20048;-83
2022/04/29 02:44:21;;;;;;;8.50;4.25;;;8.60;99.90;;;;;;5093982;28;20021;-84
2022/04/29 02:49:31;;;;;;;9.82;5.15;;;8.60;99.90;;;;;;5079234;28;20567;-85
2022/04/29 02:51:57;;;;;;;7.93;4.25;;;8.60;99.90;;;;;;5062135;28;20060;-85
2022/04/29 02:54:23;;;;;;;8.77;5.07;;;8.60;99.90;;;;;;5064304;28;20056;-83
2022/04/29 02:56:52;;;;;;;8.32;4.93;;;8.50;99.90;;;;;;5090307;28;20036;-84
2022/04/29 02:59:38;;;;;;;9.13;4.70;;;8.50;99.90;;;;;;5067779;28;20025;-85
2022/04/29 03:02:05;;;;;;;11.93;5.28;;;8.40;99.90;;;;;;5066986;28;20066;-85
2022/04/29 03:04:31;;;;;;;10.55;4.60;;;8.40;99.90;;;;;;5064877;28;20028;-86
2022/04/29 03:06:58;;;;;;;18.50;4.97;;;8.40;99.90;;;;;;5082227;28;20544;-84
2022/04/29 03:09:25;;;;;;;12.13;5.10;;;8.30;99.90;;;;;;5046556;28;20111;-85
2022/04/29 03:11:51;;;;;;;10.27;5.63;;;8.30;99.90;;;;;;5074723;28;20020;-83
2022/04/29 03:14:17;;;;;;;9.60;5.50;;;8.30;99.90;;;;;;5090332;28;20049;-84
2022/04/29 03:16:44;;;;;;;9.75;6.07;;;8.30;99.90;;;;;;5070840;28;20062;-85
2022/04/29 03:19:10;;;;;;;18.48;5.63;;;8.20;99.90;;;;;;5070056;28;20037;-85
2022/04/29 03:21:37;;;;;;;8.23;5.32;;;8.20;99.90;;;;;;5068345;28;20028;-85
2022/04/29 03:24:04;;;;;;;9.02;5.68;;;8.20;99.90;;;;;;5068963;28;20035;-85
2022/04/29 03:26:31;;;;;;;11.52;4.90;;;8.20;99.90;;;;;;5064885;28;20029;-84
2022/04/29 03:28:58;;;;;;;15.68;5.63;;;8.20;99.90;;;;;;5068207;28;20099;-85
2022/04/29 03:31:24;;;;;;;11.32;5.75;;;8.10;99.90;;;;;;5064183;28;20538;-84
2022/04/29 03:34:08;;;;;;;8.18;5.78;;;8.10;99.90;;;;;;5082652;28;20388;-84
2022/04/29 03:36:34;;;;;;;11.98;5.88;;;8.10;99.90;;;;;;5065122;28;20024;-85
2022/04/29 03:39:01;;;;;;;12.90;5.75;;;8.10;99.90;;;;;;5063320;28;20488;-83
2022/04/29 03:41:29;;;;;;;9.75;6.10;;;8.00;99.90;;;;;;5064797;28;20020;-85
2022/04/29 03:43:55;;;;;;;10.35;5.35;;;8.00;99.90;;;;;;5065783;28;20510;-86
2022/04/29 03:46:27;;;;;;;9.48;5.85;;;8.00;99.90;;;;;;5071902;28;20039;-84
2022/04/29 03:51:49;;;;;;;15.77;5.50;;;8.00;99.90;;;;;;5075472;28;20096;-83
2022/04/29 03:54:15;;;;;;;13.23;5.85;;;8.00;99.90;;;;;;5073931;28;20020;-84
2022/04/29 03:56:46;;;;;;;9.82;5.68;;;8.00;99.90;;;;;;5080045;28;20033;-83
2022/04/29 03:59:12;;;;;;;12.25;6.22;;;7.90;99.90;;;;;;5097150;28;20032;-83
2022/04/29 04:01:38;;;;;;;13.80;6.40;;;8.00;99.90;;;;;;5078588;28;20036;-84
2022/04/29 04:04:05;;;;;;;12.32;6.50;;;8.00;99.90;;;;;;5087474;28;20029;-84
2022/04/29 04:06:49;;;;;;;11.90;6.10;;;8.00;99.90;;;;;;5068811;28;20048;-85
2022/04/29 04:09:18;;;;;;;13.68;6.13;;;8.00;99.90;;;;;;5088565;28;20070;-83
2022/04/29 04:11:44;;;;;;;10.77;5.85;;;8.00;99.90;;;;;;5074887;28;20571;-84
2022/04/29 04:14:13;;;;;;;10.80;6.40;;;8.10;99.90;;;;;;5075176;28;20028;-84
2022/04/29 04:16:45;;;;;;;13.07;6.35;;;8.10;99.90;;;;;;5062714;28;20028;-85
2022/04/29 04:19:12;;;;;;;10.82;6.55;;;8.10;99.90;;;;;;5062675;28;20021;-86
2022/04/29 04:21:37;;;;;;;13.77;7.13;;;8.20;99.90;;;;;;5080769;28;20050;-86
2022/04/29 04:24:06;;;;;;;13.57;7.22;;;8.20;99.90;;;;;;5080658;28;20036;-85
2022/04/29 04:26:32;;;;;;;11.25;7.40;;;8.30;99.90;;;;;;5064660;28;20038;-83
2022/04/29 04:29:01;;;;;;;17.15;7.28;;;8.30;99.90;;;;;;5081029;28;20084;-84
2022/04/29 04:31:35;;;;;;;14.10;7.10;;;8.30;99.90;;;;;;5080748;28;20080;-84
2022/04/29 04:34:49;;;;;;;11.35;7.00;;;8.40;99.90;;;;;;5075555;28;20043;-83
2022/04/29 04:36:53;;;;;;;11.40;6.80;;;8.40;99.90;;;;;;5070942;28;20098;-82
2022/04/29 04:39:21;;;;;;;15.02;6.47;;;8.50;99.90;;;;;;5072144;28;20131;-85
2022/04/29 04:41:48;;;;;;;15.32;6.97;;;8.60;99.90;;;;;;5063543;28;20021;-85
2022/04/29 04:44:21;;;;;;;13.02;7.10;;;8.60;99.90;;;;;;5058899;28;20036;-85
2022/04/29 04:46:48;;;;;;;11.30;6.95;;;8.70;99.90;;;;;;5080959;28;20032;-83
2022/04/29 04:49:29;;;;;;;15.65;6.07;;;8.80;99.90;;;;;;5071769;28;20023;-83
2022/04/29 04:51:57;;;;;;;10.32;6.32;;;8.80;99.90;;;;;;5073542;28;20035;-81
2022/04/29 04:54:23;;;;;;;11.95;6.40;;;8.90;99.90;;;;;;5075275;28;20064;-83
2022/04/29 04:56:48;;;;;;;12.50;6.35;;;9.00;99.90;;;;;;5090074;28;20020;-84
2022/04/29 04:59:14;;;;;;;10.15;6.07;;;9.10;99.90;;;;;;5070325;28;20017;-81
2022/04/29 05:01:40;;;;;;;11.48;6.10;;;9.20;99.90;;;;;;5093808;28;20029;-83
2022/04/29 05:04:32;;;;;;;13.90;6.38;;;9.20;99.90;;;;;;5076896;28;20025;-85
2022/04/29 05:07:03;;;;;;;10.13;5.95;;;9.30;99.90;;;;;;5092795;28;20040;-86
2022/04/29 05:09:29;;;;;;;11.43;6.18;;;9.40;99.90;;;;;;5075641;28;20097;-85
2022/04/29 05:11:55;;;;;;;14.68;6.75;;;9.50;99.90;;;;;;5056311;28;20079;-84
2022/04/29 05:14:44;;;;;;;12.48;6.20;;;9.60;99.90;;;;;;5073746;28;20041;-85
2022/04/29 05:17:10;;;;;;;11.95;6.35;;;9.90;99.90;;;;;;5058683;28;20025;-85
2022/04/29 05:20:10;;;;;;;10.85;6.03;;;10.20;99.90;;;;;;5058409;28;20116;-84
2022/04/29 05:22:43;;;;;;;10.40;5.88;;;10.40;99.90;;;;;;5050611;28;20020;-84
2022/04/29 05:25:11;;;;;;;15.23;6.22;;;10.60;99.90;;;;;;5059813;28;20084;-83
2022/04/29 05:27:40;;;;;;;12.07;6.93;;;10.70;99.90;;;;;;5095156;28;20021;-82
2022/04/29 05:30:27;;;;;;;12.13;6.83;;;10.80;99.90;;;;;;5092951;28;20023;-86
2022/04/29 05:33:11;;;;;;;10.13;6.70;;;10.80;99.90;;;;;;5092171;28;20039;-85
2022/04/29 05:35:56;;;;;;;17.13;7.47;;;11.10;99.90;;;;;;5093556;28;20048;-83
2022/04/29 05:44:18;;;;;;;13.85;6.43;;;11.60;99.90;;;;;;5095157;28;20032;-84
2022/04/29 05:46:44;;;;;;;14.05;6.75;;;11.50;99.90;;;;;;5078748;28;20024;-81
2022/04/29 05:49:09;;;;;;;15.40;8.95;;;11.50;99.90;;;;;;5079648;28;20062;-82
2022/04/29 05:51:40;;;;;;;16.25;7.80;;;11.60;99.90;;;;;;5067846;28;20025;-83
2022/04/29 05:54:06;;;;;;;18.63;8.07;;;11.70;99.90;;;;;;5070581;28;20035;-82
2022/04/29 05:56:32;;;;;;;17.42;7.15;;;11.60;99.90;;;;;;5079086;28;20033;-83
2022/04/29 05:59:01;;;;;;;13.75;7.63;;;11.70;99.90;;;;;;5068565;28;20032;-84
2022/04/29 06:01:47;;;;;;;16.45;6.43;;;11.80;99.90;;;;;;5080427;28;20020;-83
2022/04/29 06:04:13;;;;;;;13.18;7.38;;;12.00;99.90;;;;;;5079539;28;20028;-83
2022/04/29 06:06:41;;;;;;;14.95;6.95;;;12.00;99.90;;;;;;5083113;28;20021;-81
2022/04/29 06:09:07;;;;;;;12.93;6.55;;;12.10;99.90;;;;;;5110898;28;20046;-82
2022/04/29 06:11:33;;;;;;;15.93;7.10;;;12.30;99.90;;;;;;5080751;28;20048;-81
2022/04/29 06:14:00;;;;;;;18.20;6.78;;;12.40;99.90;;;;;;5089765;28;20024;-84
2022/04/29 06:16:49;;;;;;;12.93;6.90;;;12.50;99.90;;;;;;5060175;28;20072;-84
2022/04/29 06:19:37;;;;;;;20.58;7.70;;;12.50;99.90;;;;;;5080488;28;20079;-84
2022/04/29 06:22:24;;;;;;;13.10;6.90;;;12.60;99.90;;;;;;5071807;28;20115;-85
2022/04/29 06:24:50;;;;;;;9.77;6.45;;;12.80;99.90;;;;;;5050285;28;20044;-84
2022/04/29 06:27:16;;;;;;;11.98;7.55;;;13.00;99.90;;;;;;5048549;28;20094;-83
2022/04/29 06:29:43;;;;;;;12.80;7.05;;;13.10;99.90;;;;;;5084912;28;20021;-86
2022/04/29 06:32:09;;;;;;;14.20;6.78;;;13.30;99.90;;;;;;5067999;28;20687;-82
2022/04/29 06:34:55;;;;;;;10.90;6.90;;;13.40;99.90;;;;;;5101669;28;20051;-82
2022/04/29 06:37:21;;;;;;;13.15;7.80;;;13.60;99.90;;;;;;5095181;28;20036;-83
2022/04/29 06:39:51;;;;;;;13.45;7.47;;;13.70;99.90;;;;;;5095468;28;20072;-83
2022/04/29 06:42:47;;;;;;;21.73;7.13;;;13.80;99.90;;;;;;5081437;28;20028;-84
2022/04/29 06:49:20;;;;;;;17.25;7.13;;;14.00;99.90;;;;;;5439889;22;20316;-85
2022/04/29 06:52:07;;;;;;;18.55;7.65;;;14.20;99.90;;;;;;5084708;28;20036;-86
2022/04/29 06:54:49;;;;;;;24.60;7.50;;;14.20;99.90;;;;;;5091024;28;20178;-85
2022/04/29 06:57:15;;;;;;;15.73;7.65;;;14.20;99.90;;;;;;5124544;28;20025;-85
2022/04/29 06:59:41;;;;;;;14.95;7.38;;;14.30;99.90;;;;;;5097115;28;20059;-86
2022/04/29 07:02:07;;;;;;;13.80;7.05;;;14.30;99.90;;;;;;5103724;22;20048;-86
2022/04/29 07:04:34;;;;;;;15.40;7.72;;;14.30;99.90;;;;;;5051568;28;20080;-86
2022/04/29 07:07:01;;;;;;;14.68;6.60;;;14.40;99.90;;;;;;5066626;28;20047;-87
2022/04/29 07:09:29;;;;;;;11.60;7.00;;;14.60;99.90;;;;;;5076970;28;20529;-85
2022/04/29 07:12:21;;;;;;;18.75;6.95;;;14.60;99.90;;;;;;5038046;28;20033;-87
2022/04/29 07:14:54;;;;;;;14.45;7.60;;;14.70;99.90;;;;;;5050450;28;20025;-85
2022/04/29 07:17:23;;;;;;;11.65;6.13;;;14.80;99.90;;;;;;5038001;28;20052;-86
2022/04/29 07:19:53;;;;;;;12.57;6.28;;;15.00;99.60;;;;;;5051321;28;20368;-86
2022/04/29 07:22:21;;;;;;;14.10;6.80;;;15.10;99.20;;;;;;5063890;28;20111;-87
2022/04/29 07:24:46;;;;;;;12.85;6.97;;;15.30;98.30;;;;;;5067805;28;20056;-86
2022/04/29 07:27:13;;;;;;;11.15;6.40;;;15.40;98.10;;;;;;5067074;28;20032;-85
2022/04/29 07:29:39;;;;;;;15.60;6.30;;;15.60;97.90;;;;;;5053707;28;20035;-84
2022/04/29 07:32:16;;;;;;;13.48;6.30;;;15.60;97.90;;;;;;5064827;28;20017;-84
2022/04/29 07:43:33;;;;;;;13.38;6.22;;;15.80;95.20;;;;;;5064293;28;20174;-85
2022/04/29 07:45:59;;;;;;;16.00;6.40;;;15.80;95.20;;;;;;5056226;28;20025;-85
2022/04/29 07:48:28;;;;;;;11.90;6.68;;;15.80;95.50;;;;;;5065104;28;20043;-86
2022/04/29 07:50:56;;;;;;;14.45;6.78;;;15.90;95.10;;;;;;5054559;28;20088;-86
2022/04/29 07:53:22;;;;;;;15.10;6.57;;;16.00;94.80;;;;;;5044646;28;20044;-85
2022/04/29 07:55:48;;;;;;;14.38;6.35;;;16.00;94.90;;;;;;5069214;28;20096;-86
2022/04/29 07:58:14;;;;;;;8.77;6.43;;;16.10;94.60;;;;;;5080231;28;20029;-86
2022/04/29 08:00:41;;;;;;;11.77;6.32;;;16.20;94.60;;;;;;5072422;28;20104;-85
2022/04/29 08:03:07;;;;;;;16.52;6.68;;;16.20;94.30;;;;;;5037244;28;20063;-84
2022/04/29 08:05:52;;;;;;;;;;;16.30;93.90;;;;;;5051859;28;20026;-86
2022/04/29 08:08:19;;;;;;;15.80;6.80;;;16.40;93.70;;;;;;5073627;28;19983;-86
2022/04/29 08:10:46;;;;;;;13.63;5.88;;;16.50;93.20;;;;;;5057555;28;20021;-83
2022/04/29 08:13:12;;;;;;;11.45;6.60;;;16.70;92.90;;;;;;5052617;28;20025;-85
2022/04/29 08:15:58;;;;;;;10.63;5.72;;;16.70;93.00;;;;;;5067144;28;20087;-86
2022/04/29 08:18:52;;;;;;;19.42;6.40;;;16.70;93.00;;;;;;5050080;28;20019;-84
2022/04/29 08:21:26;;;;;;;10.02;5.93;;;16.60;93.20;;;;;;5060451;28;20021;-85
2022/04/29 08:23:53;;;;;;;12.90;5.90;;;16.70;93.10;;;;;;5077572;28;20033;-85
2022/04/29 08:26:18;;;;;;;13.38;6.93;;;16.80;92.70;;;;;;5088803;28;20017;-85
2022/04/29 08:28:44;;;;;;;12.13;6.72;;;16.80;92.50;;;;;;5050896;28;20105;-84
2022/04/29 08:31:10;;;;;;;11.98;6.80;;;16.90;92.10;;;;;;5063227;28;20017;-86
2022/04/29 08:33:50;;;;;;;11.18;5.82;;;16.80;91.80;;;;;;5048107;28;20112;-84
2022/04/29 08:36:17;;;;;;;14.70;6.72;;;16.90;92.40;;;;;;5034473;28;20029;-84
2022/04/29 08:38:43;;;;;;;10.25;6.63;;;17.00;91.20;;;;;;5058607;28;20036;-84
2022/04/29 08:41:10;;;;;;;12.85;6.10;;;17.10;90.90;;;;;;5056601;28;20236;-85
2022/04/29 08:43:38;;;;;;;14.60;5.70;;;17.20;90.50;;;;;;5051887;28;20029;-85
2022/04/29 08:46:07;;;;;;;15.07;6.07;;;17.30;90.30;;;;;;5054906;28;20032;-86
2022/04/29 08:48:52;;;;;;;16.17;5.90;;;17.30;90.10;;;;;;5066475;28;20032;-84
2022/04/29 08:51:19;;;;;;;12.65;5.25;;;17.30;89.30;;;;;;5068834;28;20032;-86
2022/04/29 08:53:47;;;;;;;11.27;5.63;;;17.40;89.20;;;;;;5066179;28;20040;-85
2022/04/29 08:59:00;;;;;;;11.35;5.30;;;17.50;88.00;;;;;;5088714;28;20059;-85
2022/04/29 09:01:26;;;;;;;8.32;4.82;;;17.60;86.40;;;;;;5096026;28;20050;-86
2022/04/29 09:03:52;;;;;;;8.25;4.68;;;17.60;83.60;;;;;;5062711;28;20497;-85
2022/04/29 09:06:22;;;;;;;12.93;5.18;;;17.70;83.90;;;;;;5084661;28;20039;-85
2022/04/29 09:08:49;;;;;;;7.22;4.82;;;17.90;83.60;;;;;;5088831;28;20025;-86
2022/04/29 09:11:22;;;;;;;9.23;5.05;;;17.70;83.20;;;;;;5072603;28;20017;-85
2022/04/29 09:13:48;;;;;;;9.43;5.35;;;17.80;84.40;;;;;;5086087;28;20029;-85
2022/04/29 09:16:14;;;;;;;11.38;4.65;;;17.70;83.30;;;;;;5056938;28;20068;-84
2022/04/29 09:18:45;;;;;;;7.53;4.80;;;17.60;83.00;;;;;;5052050;28;20035;-84
2022/04/29 09:21:11;;;;;;;8.18;4.95;;;17.50;83.10;;;;;;5045369;28;20479;-85
2022/04/29 09:23:59;;;;;;;9.98;5.75;;;17.60;82.60;;;;;;5078061;28;20025;-85
2022/04/29 09:26:43;;;;;;;10.35;5.40;;;17.90;83.40;;;;;;5077005;28;20043;-85
2022/04/29 09:29:14;;;;;;;8.60;4.88;;;18.70;83.10;;;;;;5089314;28;20044;-86
2022/04/29 09:31:54;;;;;;;7.97;5.13;;;19.40;82.20;;;;;;5073412;28;20028;-84
2022/04/29 09:34:58;;;;;;;9.02;5.05;;;20.40;79.20;;;;;;5016805;28;20030;-85
2022/04/29 09:37:28;;;;;;;7.25;4.85;;;21.50;75.30;;;;;;5048535;28;20037;-87
2022/04/29 09:40:04;;;;;;;11.25;4.53;;;22.40;72.90;;;;;;5059939;28;20021;-87
2022/04/29 09:42:41;;;;;;;7.15;4.80;;;23.00;70.90;;;;;;5058441;28;20045;-86
2022/04/29 09:45:17;;;;;;;9.85;5.32;;;23.50;69.20;;;;;;5076525;28;20033;-84
2022/04/29 09:47:43;;;;;;;9.38;4.20;;;24.00;66.70;;;;;;5075601;28;20047;-86
2022/04/29 09:50:10;;;;;;;7.32;5.38;;;24.80;65.30;;;;;;5049217;28;20036;-86
2022/04/29 09:52:40;;;;;;;12.15;4.55;;;24.70;63.40;;;;;;5069168;28;20046;-85
2022/04/29 09:55:14;;;;;;;9.25;5.20;;;24.90;63.50;;;;;;5078768;28;20017;-82
2022/04/29 09:58:00;;;;;;;9.40;4.38;;;26.10;61.00;;;;;;5076947;28;20040;-86
2022/04/29 10:00:26;;;;;;;7.72;4.60;;;27.60;59.20;;;;;;5077126;28;20021;-86
2022/04/29 10:02:52;;;;;;;10.73;4.22;;;28.90;56.70;;;;;;5076905;28;20036;-84
2022/04/29 10:05:22;;;;;;;10.65;4.93;;;30.40;52.70;;;;;;5047488;28;20018;-85
2022/04/29 10:08:05;;;;;;;11.68;4.80;;;29.70;51.20;;;;;;5054469;28;20051;-87
2022/04/29 10:10:32;;;;;;;6.45;4.55;;;27.80;52.10;;;;;;5071884;28;20044;-85
2022/04/29 10:13:00;;;;;;;8.48;4.68;;;26.30;53.60;;;;;;5064192;28;20043;-85
2022/04/29 10:15:35;;;;;;;9.25;4.82;;;25.20;53.50;;;;;;5060360;28;20029;-84
2022/04/29 10:21:36;;;;;;;8.65;3.90;;;27.30;52.70;;;;;;5065593;28;20031;-85
2022/04/29 10:24:03;;;;;;;6.15;4.10;;;29.60;51.50;;;;;;5072049;28;20040;-84
2022/04/29 10:26:30;;;;;;;9.10;4.45;;;29.50;49.90;;;;;;5075186;28;20089;-84
2022/04/29 10:28:56;;;;;;;7.60;5.03;;;28.70;50.70;;;;;;5069610;28;20092;-83
2022/04/29 10:31:23;;;;;;;6.50;4.95;;;28.30;51.80;;;;;;5044580;28;20053;-84
2022/04/29 10:33:49;;;;;;;5.85;4.13;;;28.90;51.10;;;;;;5063192;28;20056;-85
2022/04/29 10:36:22;;;;;;;8.43;4.15;;;29.20;50.50;;;;;;5047455;28;20036;-84
2022/04/29 10:38:48;;;;;;;9.02;3.95;;;28.30;50.50;;;;;;5047511;28;20368;-84
2022/04/29 10:41:20;;;;;;;9.80;4.20;;;27.90;51.00;;;;;;5066634;28;20028;-84
2022/04/29 10:43:52;;;;;;;7.45;4.78;;;29.10;50.70;;;;;;5049656;28;20033;-85
2022/04/29 10:46:31;;;;;;;5.95;4.32;;;31.00;47.90;;;;;;5081834;28;20070;-84
2022/04/29 10:49:20;;;;;;;10.45;4.40;;;32.40;47.30;;;;;;5077827;28;20067;-84
2022/04/29 10:52:26;;;;;;;7.33;4.90;;;33.30;46.30;;;;;;5075265;28;20032;-86
2022/04/29 10:55:06;;;;;;;7.55;4.50;;;34.00;45.00;;;;;;5082188;28;20032;-86
2022/04/29 10:57:41;;;;;;;10.48;5.13;;;32.60;45.10;;;;;;5070077;28;20032;-86
2022/04/29 11:00:13;;;;;;;9.23;5.70;;;32.10;45.60;;;;;;5070682;28;20035;-86
2022/04/29 11:02:40;;;;;;;7.53;5.30;;;32.30;45.70;;;;;;5074317;28;20059;-86
2022/04/29 11:05:10;;;;;;;7.00;4.40;;;32.80;44.90;;;;;;5075109;28;20025;-84
2022/04/29 11:07:48;;;;;;;9.40;4.20;;;32.70;43.70;;;;;;5056306;28;20399;-87
2022/04/29 11:10:18;;;;;;;5.75;4.28;;;31.90;44.20;;;;;;5053685;28;20029;-87
2022/04/29 11:13:05;;;;;;;8.65;4.28;;;31.00;44.70;;;;;;5055668;28;20080;-86
2022/04/29 11:15:50;;;;;;;8.75;4.55;;;32.20;44.40;;;;;;5063040;28;20036;-85
2022/04/29 11:19:19;;;;;;;7.38;4.40;;;33.60;43.90;;;;;;5035331;28;20021;-85
2022/04/29 11:24:42;;;;;;;5.60;4.57;;;34.30;42.70;;;;;;5043796;28;20033;-86
2022/04/29 11:27:10;;;;;;;9.80;4.07;;;34.90;42.10;;;;;;5054202;28;20064;-86
2022/04/29 11:29:43;;;;;;;9.57;4.25;;;35.30;42.20;;;;;;5068945;28;20032;-86
2022/04/29 11:32:38;;;;;;;5.82;4.18;;;37.10;41.30;;;;;;5048492;28;20096;-87
2022/04/29 11:35:05;;;;;;;6.93;4.50;;;36.40;40.90;;;;;;5057845;28;20645;-86
2022/04/29 11:37:34;;;;;;;5.82;4.32;;;36.70;40.60;;;;;;5066087;28;20017;-86
2022/04/29 11:40:05;;;;;;;7.18;3.83;;;35.90;40.10;;;;;;5072330;28;20036;-88
2022/04/29 11:42:31;;;;;;;7.13;4.18;;;34.00;40.70;;;;;;5066270;28;20380;-86
2022/04/29 11:45:05;;;;;;;9.43;4.40;;;32.70;41.30;;;;;;5049528;28;20017;-88
2022/04/29 11:47:32;;;;;;;8.15;4.35;;;32.80;41.70;;;;;;5052827;28;20049;-86
2022/04/29 11:49:59;;;;;;;9.57;4.45;;;34.50;40.30;;;;;;5067740;28;20031;-87
2022/04/29 11:52:29;;;;;;;11.48;4.00;;;34.30;40.10;;;;;;5037356;28;20071;-88
2022/04/29 11:55:02;;;;;;;5.65;4.00;;;33.60;40.60;;;;;;5059311;28;20084;-88
2022/04/29 11:57:30;;;;;;;6.82;4.25;;;32.30;41.50;;;;;;5066956;28;20039;-86
2022/04/29 11:59:56;;;;;;;5.63;3.83;;;31.20;42.30;;;;;;5069201;28;20044;-85
2022/04/29 12:02:24;;;;;;;7.03;4.03;;;30.30;42.90;;;;;;5090328;28;20036;-86
2022/04/29 12:05:04;;;;;;;7.00;3.83;;;29.80;43.30;;;;;;5079010;28;20017;-88
2022/04/29 12:07:39;;;;;;;7.30;4.60;;;29.50;43.80;;;;;;5086910;28;20033;-86
2022/04/29 12:10:28;;;;;;;8.13;4.32;;;29.70;43.70;;;;;;5060872;28;20013;-87
2022/04/29 12:12:56;;;;;;;5.70;3.60;;;30.70;43.00;;;;;;5058724;28;20037;-85
2022/04/29 12:15:26;;;;;;;5.05;3.85;;;30.10;43.30;;;;;;5067680;28;20021;-88
2022/04/29 12:17:57;;;;;;;5.25;3.72;;;29.00;43.90;;;;;;5076062;28;20044;-88
2022/04/29 12:20:23;;;;;;;10.93;4.40;;;28.30;44.80;;;;;;5086963;28;20108;-86
2022/04/29 12:22:52;;;;;;;11.23;4.88;;;27.00;45.60;;;;;;5087976;28;20016;-85
2022/04/29 12:25:21;;;;;;;13.05;5.30;;;26.10;46.30;;;;;;5059770;28;20045;-86
2022/04/29 12:28:08;;;;;;;12.48;4.75;;;25.30;46.70;;;;;;5057271;28;20036;-89
2022/04/29 12:36:13;;;;;;;10.02;5.18;;;30.70;43.10;;;;;;5097655;28;20036;-88
2022/04/29 12:38:42;;;;;;;6.63;4.57;;;32.40;41.80;;;;;;5062784;28;20025;-87
2022/04/29 12:41:27;;;;;;;5.97;4.53;;;32.30;41.40;;;;;;5091915;28;20033;-85
2022/04/29 12:44:05;;;;;;;5.88;4.03;;;32.50;41.40;;;;;;5051809;28;20040;-86
2022/04/29 12:46:31;;;;;;;7.00;3.70;;;32.60;41.60;;;;;;5080938;28;20168;-86
2022/04/29 12:48:57;;;;;;;5.20;4.00;;;33.00;41.60;;;;;;5067544;28;20047;-86
2022/04/29 12:51:32;;;;;;;7.05;3.70;;;34.10;40.50;;;;;;5059106;28;20021;-86
2022/04/29 12:54:05;;;;;;;5.93;3.75;;;35.20;39.90;;;;;;5075318;28;20009;-87
2022/04/29 12:56:33;;;;;;;7.17;4.30;;;35.60;39.90;;;;;;5075138;28;20051;-86
2022/04/29 12:59:00;;;;;;;5.78;3.30;;;35.80;40.00;;;;;;5064767;28;20272;-86
2022/04/29 13:03:58;;;;;;;5.25;3.47;;;33.50;40.30;;;;;;5092822;22;20079;-84
2022/04/29 13:06:36;;;;;;;7.47;3.88;;;32.40;40.90;;;;;;5080669;28;20060;-87
2022/04/29 13:09:03;;;;;;;9.52;4.20;;;30.70;41.00;;;;;;5081868;28;20032;-85
2022/04/29 13:11:30;;;;;;;4.88;3.67;;;30.60;42.20;;;;;;5089506;28;20025;-84
2022/04/29 13:14:01;;;;;;;6.82;3.50;;;31.20;41.60;;;;;;5067128;28;20087;-86
2022/04/29 13:16:27;;;;;;;3.90;3.15;;;32.00;41.30;;;;;;5072192;28;20032;-85
2022/04/29 13:18:56;;;;;;;4.00;2.90;;;32.70;40.00;;;;;;5064185;28;20017;-85
2022/04/29 13:21:22;;;;;;;4.25;3.15;;;33.90;39.50;;;;;;5055826;28;20076;-84
2022/04/29 13:23:55;;;;;;;5.05;3.33;;;33.90;39.20;;;;;;5069007;28;20040;-83
2022/04/29 13:26:32;;;;;;;4.55;3.20;;;34.50;39.40;;;;;;5066255;28;20065;-83
2022/04/29 13:28:58;;;;;;;4.93;3.08;;;34.70;38.70;;;;;;5051703;28;20021;-83
2022/04/29 13:31:24;;;;;;;5.30;2.70;;;34.70;38.90;;;;;;5048521;28;20028;-83
2022/04/29 13:33:50;;;;;;;6.97;3.22;;;34.80;39.40;;;;;;5063777;28;20088;-85
2022/04/29 13:36:16;;;;;;;4.28;3.30;;;34.90;38.70;;;;;;5067154;28;20075;-85
2022/04/29 13:38:43;;;;;;;6.10;3.08;;;34.30;38.90;;;;;;5070893;28;20263;-86
2022/04/29 13:41:11;;;;;;;5.32;2.97;;;33.70;38.60;;;;;;5073953;28;20025;-85
2022/04/29 13:43:42;;;;;;;4.82;3.05;;;33.50;38.90;;;;;;5061809;28;20093;-83
2022/04/29 13:46:10;;;;;;;3.97;3.13;;;33.40;39.10;;;;;;5072889;28;20083;-85